createdAt,value
2022-08-17T00:00:34.398Z,70.46
2022-08-17T00:03:22.513Z,70.84
2022-08-17T00:06:02.493Z,71.56
2022-08-17T00:08:35.963Z,70.97
2022-08-17T00:11:08.241Z,70.78
2022-08-17T00:13:39.224Z,71.29
2022-08-17T00:16:12.277Z,71.32
2022-08-17T00:19:01.115Z,71.53
2022-08-17T00:22:29.598Z,71.76
2022-08-17T00:24:18.382Z,72.24
2022-08-17T00:26:46.405Z,72.17
2022-08-17T00:29:19.326Z,72.53
2022-08-17T00:31:47.521Z,72.76
2022-08-17T00:34:15.229Z,73.08
2022-08-17T00:36:42.873Z,73.46
2022-08-17T00:39:10.562Z,73.65
2022-08-17T00:41:42.244Z,73.75
2022-08-17T00:44:10.801Z,74.08
2022-08-17T00:46:43.164Z,74.07
2022-08-17T00:49:13.658Z,74.31
2022-08-17T00:51:53.040Z,74.36
2022-08-17T00:54:41.993Z,74.79
2022-08-17T00:57:14.762Z,74.42
2022-08-17T01:00:01.731Z,74.37
2022-08-17T01:02:41.996Z,74.68
2022-08-17T01:05:15.910Z,74.39
2022-08-17T01:07:48.848Z,74.91
2022-08-17T01:10:59.503Z,74.76
2022-08-17T01:13:08.483Z,74.96
2022-08-17T01:15:46.091Z,75.15
2022-08-17T01:18:15.525Z,75.91
2022-08-17T01:20:51.606Z,75.98
2022-08-17T01:23:22.293Z,77.01
2022-08-17T01:25:56.314Z,76.74
2022-08-17T01:28:52.568Z,77.66
2022-08-17T01:31:14.329Z,77.79
2022-08-17T01:33:42.122Z,77.55
2022-08-17T01:36:10.458Z,77.61
2022-08-17T01:38:40.226Z,77.80
2022-08-17T01:41:13.347Z,77.64
2022-08-17T01:43:46.438Z,77.38
2022-08-17T01:46:22.877Z,77.05
2022-08-17T01:48:52.246Z,76.73
2022-08-17T01:51:21.082Z,76.29
2022-08-17T01:53:53.047Z,76.09
2022-08-17T01:56:24.093Z,76.07
2022-08-17T01:58:52.472Z,76.04
2022-08-17T02:01:24.719Z,75.84
2022-08-17T02:03:56.215Z,75.95
2022-08-17T02:06:45.303Z,75.92
2022-08-17T02:09:25.935Z,76.06
2022-08-17T02:11:56.223Z,76.01
2022-08-17T02:14:25.047Z,76.24
2022-08-17T02:16:53.286Z,76.34
2022-08-17T02:19:21.409Z,76.90
2022-08-17T02:21:51.138Z,77.31
2022-08-17T02:24:58.271Z,77.50
2022-08-17T02:27:11.956Z,78.41
2022-08-17T02:29:39.724Z,78.76
2022-08-17T02:32:07.693Z,79.21
2022-08-17T02:34:35.381Z,79.71
2022-08-17T02:37:03.086Z,80.02
2022-08-17T02:39:30.792Z,79.99
2022-08-17T02:42:03.867Z,79.91
2022-08-17T02:44:38.963Z,80.01
2022-08-17T02:47:11.389Z,80.34
2022-08-17T02:49:39.336Z,80.23
2022-08-17T02:52:08.747Z,79.85
2022-08-17T02:54:41.067Z,79.77
2022-08-17T02:57:10.108Z,79.79
2022-08-17T02:59:42.380Z,79.87
2022-08-17T03:02:14.524Z,79.62
2022-08-17T03:04:42.199Z,79.79
2022-08-17T03:07:09.968Z,79.74
2022-08-17T03:09:37.618Z,79.70
2022-08-17T03:12:14.663Z,79.40
2022-08-17T03:14:44.054Z,79.35
2022-08-17T03:17:17.070Z,79.15
2022-08-17T03:19:45.689Z,79.13
2022-08-17T03:22:37.376Z,79.33
2022-08-17T03:25:01.146Z,79.25
2022-08-17T03:27:29.964Z,79.38
2022-08-17T03:29:57.799Z,79.29
2022-08-17T03:32:25.444Z,79.45
2022-08-17T03:34:53.102Z,79.46
2022-08-17T03:37:20.768Z,79.47
2022-08-17T03:39:48.662Z,79.48
2022-08-17T03:42:32.224Z,79.65
2022-08-17T03:45:02.087Z,79.97
2022-08-17T03:47:48.649Z,79.72
2022-08-17T03:50:36.867Z,79.94
2022-08-17T03:53:27.238Z,79.39
2022-08-17T03:56:13.815Z,79.07
2022-08-17T03:58:41.491Z,79.10
2022-08-17T04:01:09.407Z,78.29
2022-08-17T04:03:37.303Z,77.22
2022-08-17T04:06:05.010Z,77.00
2022-08-17T04:08:32.837Z,76.86
2022-08-17T04:11:01.954Z,76.54
2022-08-17T04:13:29.630Z,76.41
2022-08-17T04:15:58.377Z,76.14
2022-08-17T04:18:27.123Z,76.09
2022-08-17T04:20:55.055Z,76.17
2022-08-17T04:23:24.671Z,76.11
2022-08-17T04:25:52.465Z,75.92
2022-08-17T04:28:20.832Z,75.90
2022-08-17T04:30:49.033Z,75.82
2022-08-17T04:33:20.102Z,75.71
2022-08-17T04:35:51.159Z,75.45
2022-08-17T04:38:26.319Z,75.32
2022-08-17T04:41:13.393Z,75.33
2022-08-17T04:43:43.006Z,75.31
2022-08-17T04:46:16.600Z,75.30
2022-08-17T04:48:51.481Z,75.37
2022-08-17T04:51:23.373Z,74.97
2022-08-17T04:53:54.709Z,74.88
2022-08-17T04:56:24.120Z,74.85
2022-08-17T04:58:54.384Z,74.94
2022-08-17T05:01:24.524Z,75.07
2022-08-17T05:03:54.368Z,75.05
2022-08-17T05:06:23.158Z,74.99
2022-08-17T05:08:50.910Z,74.88
2022-08-17T05:11:18.688Z,74.68
2022-08-17T05:13:46.477Z,74.53
2022-08-17T05:16:14.235Z,74.42
2022-08-17T05:18:41.989Z,74.46
2022-08-17T05:21:09.822Z,74.50
2022-08-17T05:23:43.023Z,74.38
2022-08-17T05:26:25.925Z,74.28
2022-08-17T05:28:57.170Z,74.16
2022-08-17T05:31:29.885Z,74.03
2022-08-17T05:33:57.971Z,73.88
2022-08-17T05:36:43.022Z,73.71
2022-08-17T05:39:15.930Z,73.45
2022-08-17T05:41:44.524Z,73.22
2022-08-17T05:44:12.244Z,72.52
2022-08-17T05:46:44.638Z,72.41
2022-08-17T05:49:15.891Z,69.59
2022-08-17T05:52:02.188Z,68.53
2022-08-17T05:54:32.843Z,69.62
2022-08-17T05:57:21.876Z,68.57
2022-08-17T06:00:12.000Z,67.30
2022-08-17T06:03:16.503Z,67.62
2022-08-17T06:06:21.981Z,66.68
2022-08-17T06:09:10.625Z,66.64
2022-08-17T06:11:48.205Z,65.68
2022-08-17T06:14:27.148Z,66.39
2022-08-17T06:17:01.838Z,66.03
2022-08-17T06:19:49.744Z,66.38
2022-08-17T06:22:21.622Z,66.03
2022-08-17T06:24:57.971Z,66.35
2022-08-17T06:27:44.165Z,66.19
2022-08-17T06:30:29.363Z,66.29
2022-08-17T06:33:29.413Z,66.12
2022-08-17T06:36:07.966Z,65.97
2022-08-17T06:38:50.981Z,64.61
2022-08-17T06:41:44.639Z,64.80
2022-08-17T06:44:43.211Z,64.66
2022-08-17T06:47:46.009Z,65.06
2022-08-17T06:50:37.046Z,64.89
2022-08-17T06:53:13.014Z,64.49
2022-08-17T06:55:56.698Z,64.26
2022-08-17T06:58:29.703Z,63.74
2022-08-17T07:01:02.031Z,63.99
2022-08-17T07:03:47.702Z,63.96
2022-08-17T07:06:38.377Z,63.73
2022-08-17T07:09:16.919Z,63.45
2022-08-17T07:11:53.042Z,62.94
2022-08-17T07:14:55.162Z,62.67
2022-08-17T07:17:47.029Z,62.71
2022-08-17T07:20:18.838Z,63.09
2022-08-17T07:22:59.655Z,62.93
2022-08-17T07:25:29.633Z,62.70
2022-08-17T07:28:01.439Z,62.18
2022-08-17T07:30:37.110Z,61.51
2022-08-17T07:33:15.532Z,61.22
2022-08-17T07:35:46.061Z,60.69
2022-08-17T07:38:24.763Z,60.48
2022-08-17T07:41:03.357Z,60.06
2022-08-17T07:43:42.384Z,59.38
2022-08-17T07:46:37.854Z,58.67
2022-08-17T07:49:06.152Z,57.62
2022-08-17T07:51:43.913Z,57.09
2022-08-17T07:54:17.646Z,55.64
2022-08-17T07:56:54.577Z,54.37
2022-08-17T07:59:33.909Z,54.42
2022-08-17T08:02:10.463Z,54.02
2022-08-17T08:05:00.706Z,54.60
2022-08-17T08:07:56.079Z,53.74
2022-08-17T08:10:37.837Z,53.06
2022-08-17T08:13:12.174Z,51.78
2022-08-17T08:15:53.725Z,53.05
2022-08-17T08:18:56.777Z,52.22
2022-08-17T08:21:37.984Z,50.93
2022-08-17T08:24:32.987Z,50.99
2022-08-17T08:27:20.876Z,50.98
2022-08-17T08:30:08.842Z,51.59
2022-08-17T08:32:57.354Z,51.91
2022-08-17T08:35:39.193Z,51.45
2022-08-17T08:38:16.012Z,52.17
2022-08-17T08:40:52.691Z,51.81
2022-08-17T08:43:53.232Z,51.27
2022-08-17T08:46:27.011Z,51.60
2022-08-17T08:49:14.751Z,51.99
2022-08-17T08:51:58.326Z,51.65
2022-08-17T08:54:50.316Z,50.94
2022-08-17T08:57:35.489Z,52.27
2022-08-17T09:00:16.956Z,51.58
2022-08-17T09:02:56.337Z,51.74
2022-08-17T09:05:58.205Z,50.86
2022-08-17T09:08:35.047Z,51.34
2022-08-17T09:11:15.727Z,51.02
2022-08-17T09:13:54.660Z,50.77
2022-08-17T09:16:30.680Z,50.71
2022-08-17T09:19:22.133Z,50.57
2022-08-17T09:22:18.662Z,51.02
2022-08-17T09:24:55.752Z,51.25
2022-08-17T09:27:31.646Z,51.32
2022-08-17T09:30:03.673Z,51.32
2022-08-17T09:32:53.195Z,51.18
2022-08-17T09:35:32.790Z,51.03
2022-08-17T09:38:42.813Z,50.74
2022-08-17T09:41:21.373Z,50.57
2022-08-17T09:44:22.658Z,50.58
2022-08-17T09:46:54.847Z,50.61
2022-08-17T09:49:46.328Z,51.01
2022-08-17T09:52:24.633Z,50.92
2022-08-17T09:54:55.522Z,50.65
2022-08-17T09:57:38.421Z,50.64
2022-08-17T10:00:17.380Z,50.21
2022-08-17T10:03:22.114Z,50.58
2022-08-17T10:06:07.634Z,49.67
2022-08-17T10:09:07.591Z,49.72
2022-08-17T10:12:10.499Z,49.39
2022-08-17T10:14:55.046Z,49.81
2022-08-17T10:17:41.462Z,49.67
2022-08-17T10:20:31.350Z,49.59
2022-08-17T10:23:20.204Z,48.94
2022-08-17T10:26:16.565Z,49.13
2022-08-17T10:29:10.562Z,48.33
2022-08-17T10:31:47.166Z,48.57
2022-08-17T10:34:23.684Z,48.11
2022-08-17T10:37:07.914Z,48.14
2022-08-17T10:39:52.214Z,48.26
2022-08-17T10:42:36.443Z,48.41
2022-08-17T10:45:19.419Z,47.16
2022-08-17T10:48:24.085Z,47.23
2022-08-17T10:50:58.751Z,47.41
2022-08-17T10:53:32.498Z,47.17
2022-08-17T10:56:15.362Z,47.14
2022-08-17T10:58:56.625Z,45.90
2022-08-17T11:01:33.487Z,45.72
2022-08-17T11:04:38.869Z,45.48
2022-08-17T11:07:26.874Z,45.69
2022-08-17T11:10:17.972Z,46.00
2022-08-17T11:12:57.026Z,45.54
2022-08-17T11:15:27.393Z,45.66
2022-08-17T11:18:04.454Z,45.56
2022-08-17T11:20:50.329Z,45.85
2022-08-17T11:23:27.081Z,44.95
2022-08-17T11:25:57.726Z,44.50
2022-08-17T11:28:37.002Z,44.93
2022-08-17T11:31:11.057Z,44.43
2022-08-17T11:33:42.434Z,44.34
2022-08-17T11:36:15.858Z,44.57
2022-08-17T11:38:55.096Z,43.96
2022-08-17T11:42:06.683Z,43.43
2022-08-17T11:44:54.696Z,43.49
2022-08-17T11:48:26.574Z,43.04
2022-08-17T11:51:32.407Z,43.36
2022-08-17T11:54:33.600Z,42.63
2022-08-17T11:57:27.698Z,42.97
2022-08-17T12:00:12.624Z,42.70
2022-08-17T12:02:48.478Z,43.39
2022-08-17T12:05:17.925Z,43.43
2022-08-17T12:08:05.560Z,43.30
2022-08-17T12:10:39.510Z,42.77
2022-08-17T12:13:13.790Z,41.44
2022-08-17T12:15:49.871Z,41.23
2022-08-17T12:18:30.206Z,41.03
2022-08-17T12:21:23.646Z,40.42
2022-08-17T12:24:10.049Z,40.13
2022-08-17T12:26:38.156Z,40.30
2022-08-17T12:29:17.808Z,40.40
2022-08-17T12:32:03.533Z,39.96
2022-08-17T12:34:39.379Z,40.31
2022-08-17T12:37:16.276Z,40.53
2022-08-17T12:39:55.717Z,40.26
2022-08-17T12:42:30.479Z,40.72
2022-08-17T12:44:58.967Z,41.03
2022-08-17T12:47:29.420Z,41.48
2022-08-17T12:50:28.253Z,41.21
2022-08-17T12:53:02.006Z,40.38
2022-08-17T12:55:36.750Z,40.59
2022-08-17T12:58:04.600Z,40.28
2022-08-17T13:00:35.880Z,40.12
2022-08-17T13:03:14.275Z,39.67
2022-08-17T13:05:54.840Z,39.88
2022-08-17T13:08:30.110Z,40.45
2022-08-17T13:11:01.205Z,40.55
2022-08-17T13:13:32.355Z,40.17
2022-08-17T13:16:06.729Z,40.16
2022-08-17T13:18:46.233Z,40.49
2022-08-17T13:21:28.764Z,40.54
2022-08-17T13:24:11.718Z,40.33
2022-08-17T13:26:44.830Z,40.38
2022-08-17T13:29:26.790Z,40.53
2022-08-17T13:32:18.013Z,40.29
2022-08-17T13:35:12.622Z,40.38
2022-08-17T13:37:42.708Z,39.89
2022-08-17T13:40:10.504Z,40.46
2022-08-17T13:42:52.086Z,40.54
2022-08-17T13:45:36.720Z,40.32
2022-08-17T13:48:11.134Z,40.30
2022-08-17T13:50:56.879Z,40.66
2022-08-17T13:53:40.397Z,40.92
2022-08-17T13:56:33.531Z,40.90
2022-08-17T13:59:10.889Z,40.89
2022-08-17T14:01:53.877Z,41.00
2022-08-17T14:04:29.149Z,40.78
2022-08-17T14:07:02.716Z,41.09
2022-08-17T14:09:37.209Z,41.25
2022-08-17T14:12:10.730Z,41.21
2022-08-17T14:14:39.124Z,41.39
2022-08-17T14:17:06.937Z,41.54
2022-08-17T14:19:36.309Z,41.66
2022-08-17T14:22:06.068Z,41.58
2022-08-17T14:24:44.157Z,41.39
2022-08-17T14:27:13.103Z,41.30
2022-08-17T14:29:42.305Z,41.64
2022-08-17T14:32:20.237Z,42.20
2022-08-17T14:34:50.595Z,43.31
2022-08-17T14:37:22.264Z,43.46
2022-08-17T14:39:50.042Z,43.15
2022-08-17T14:42:18.667Z,42.88
2022-08-17T14:44:46.379Z,43.02
2022-08-17T14:47:16.867Z,43.03
2022-08-17T14:49:47.579Z,43.64
2022-08-17T14:52:17.903Z,44.27
2022-08-17T14:54:46.016Z,44.78
2022-08-17T14:57:24.837Z,44.82
2022-08-17T15:00:02.374Z,44.54
2022-08-17T15:02:31.261Z,44.38
2022-08-17T15:05:04.715Z,44.36
2022-08-17T15:07:32.543Z,43.97
2022-08-17T15:10:02.318Z,44.09
2022-08-17T15:12:33.970Z,44.06
2022-08-17T15:15:04.875Z,44.00
2022-08-17T15:17:44.906Z,44.11
2022-08-17T15:20:29.446Z,44.30
2022-08-17T15:22:59.848Z,44.36
2022-08-17T15:25:31.448Z,44.41
2022-08-17T15:28:00.151Z,44.50
2022-08-17T15:30:28.785Z,44.70
2022-08-17T15:32:58.464Z,44.57
2022-08-17T15:35:29.472Z,44.43
2022-08-17T15:38:11.181Z,44.39
2022-08-17T15:40:44.113Z,44.44
2022-08-17T15:43:29.086Z,44.35
2022-08-17T15:46:13.295Z,44.39
2022-08-17T15:48:43.646Z,44.44
2022-08-17T15:51:17.613Z,44.47
2022-08-17T15:53:48.975Z,44.42
2022-08-17T15:56:17.383Z,44.68
2022-08-17T15:58:47.817Z,44.68
2022-08-17T16:01:31.342Z,44.70
2022-08-17T16:04:21.281Z,44.68
2022-08-17T16:06:54.699Z,44.52
2022-08-17T16:09:22.393Z,44.62
2022-08-17T16:11:52.106Z,44.70
2022-08-17T16:14:23.199Z,44.58
2022-08-17T16:16:52.106Z,44.53
2022-08-17T16:19:19.847Z,44.66
2022-08-17T16:21:47.617Z,44.80
2022-08-17T16:24:15.322Z,44.83
2022-08-17T16:26:43.498Z,44.91
2022-08-17T16:29:11.237Z,45.10
2022-08-17T16:31:39.714Z,45.10
2022-08-17T16:34:16.775Z,45.17
2022-08-17T16:36:51.874Z,45.45
2022-08-17T16:39:28.469Z,45.77
2022-08-17T16:41:56.994Z,45.97
2022-08-17T16:44:24.974Z,46.05
2022-08-17T16:46:52.719Z,45.99
2022-08-17T16:49:35.195Z,46.22
2022-08-17T16:52:11.359Z,46.44
2022-08-17T16:54:44.553Z,46.61
2022-08-17T16:57:14.242Z,46.73
2022-08-17T16:59:47.794Z,46.65
2022-08-17T17:02:24.559Z,46.55
2022-08-17T17:05:29.470Z,46.32
2022-08-17T17:08:10.160Z,46.08
2022-08-17T17:10:56.963Z,46.12
2022-08-17T17:13:40.413Z,46.04
2022-08-17T17:16:25.062Z,45.89
2022-08-17T17:19:34.628Z,45.71
2022-08-17T17:22:25.629Z,45.82
2022-08-17T17:25:17.916Z,45.70
2022-08-17T17:28:05.659Z,45.33
2022-08-17T17:31:04.653Z,45.11
2022-08-17T17:33:43.203Z,45.06
2022-08-17T17:36:37.500Z,45.12
2022-08-17T17:39:14.459Z,44.99
2022-08-17T17:42:12.575Z,44.93
2022-08-17T17:44:51.453Z,44.91
2022-08-17T17:47:19.189Z,44.93
2022-08-17T17:49:49.851Z,44.97
2022-08-17T17:52:42.077Z,44.96
2022-08-17T17:55:31.068Z,45.02
2022-08-17T17:58:40.573Z,45.16
2022-08-17T18:01:20.210Z,45.43
2022-08-17T18:04:32.151Z,45.38
2022-08-17T18:07:39.123Z,45.98
2022-08-17T18:10:29.472Z,46.02
2022-08-17T18:13:01.668Z,46.04
2022-08-17T18:16:01.722Z,46.36
2022-08-17T18:18:38.689Z,46.54
2022-08-17T18:21:16.891Z,46.71
2022-08-17T18:23:49.828Z,46.83
2022-08-17T18:26:35.861Z,46.94
2022-08-17T18:29:33.007Z,47.19
2022-08-17T18:32:18.641Z,47.21
2022-08-17T18:34:49.164Z,47.42
2022-08-17T18:37:48.891Z,47.40
2022-08-17T18:40:20.342Z,47.78
2022-08-17T18:42:57.836Z,47.79
2022-08-17T18:45:53.530Z,48.07
2022-08-17T18:48:34.921Z,50.60
2022-08-17T18:51:41.780Z,51.08
2022-08-17T18:54:22.883Z,53.73
2022-08-17T18:56:55.452Z,52.46
2022-08-17T18:59:46.690Z,52.59
2022-08-17T19:02:27.402Z,52.92
2022-08-17T19:05:14.373Z,52.22
2022-08-17T19:07:47.986Z,52.55
2022-08-17T19:10:46.343Z,51.98
2022-08-17T19:13:23.958Z,51.65
2022-08-17T19:16:07.799Z,51.63
2022-08-17T19:19:04.953Z,51.97
2022-08-17T19:21:57.167Z,52.47
2022-08-17T19:24:27.744Z,52.55
2022-08-17T19:27:19.031Z,52.36
2022-08-17T19:30:07.152Z,52.78
2022-08-17T19:32:36.856Z,52.97
2022-08-17T19:35:11.398Z,52.64
2022-08-17T19:38:03.767Z,52.42
2022-08-17T19:41:02.358Z,52.07
2022-08-17T19:44:10.593Z,52.04
2022-08-17T19:47:00.653Z,51.68
2022-08-17T19:49:52.054Z,51.69
2022-08-17T19:52:51.436Z,51.57
2022-08-17T19:56:00.851Z,51.77
2022-08-17T19:58:51.905Z,51.88
2022-08-17T20:01:46.298Z,52.06
2022-08-17T20:04:40.215Z,51.89
2022-08-17T20:07:13.163Z,51.45
2022-08-17T20:09:47.681Z,51.34
2022-08-17T20:12:19.410Z,51.42
2022-08-17T20:14:56.120Z,51.48
2022-08-17T20:17:28.642Z,51.53
2022-08-17T20:20:20.726Z,51.52
2022-08-17T20:23:00.469Z,51.58
2022-08-17T20:25:58.511Z,51.48
2022-08-17T20:28:31.538Z,51.25
2022-08-17T20:30:59.688Z,51.53
2022-08-17T20:33:38.088Z,51.64
2022-08-17T20:36:21.448Z,51.63
2022-08-17T20:38:58.507Z,52.15
2022-08-17T20:41:29.496Z,52.41
2022-08-17T20:44:00.251Z,52.52
2022-08-17T20:46:37.053Z,52.94
2022-08-17T20:49:29.885Z,52.94
2022-08-17T20:52:11.320Z,52.09
2022-08-17T20:54:55.680Z,52.84
2022-08-17T20:57:32.624Z,54.41
2022-08-17T21:00:18.370Z,55.50
2022-08-17T21:02:50.651Z,57.81
2022-08-17T21:05:34.267Z,58.45
2022-08-17T21:08:17.146Z,61.65
2022-08-17T21:10:48.110Z,63.63
2022-08-17T21:13:15.905Z,65.64
2022-08-17T21:15:43.637Z,66.32
2022-08-17T21:18:40.247Z,67.05
2022-08-17T21:21:18.716Z,68.99
2022-08-17T21:24:20.430Z,70.67
2022-08-17T21:27:02.489Z,70.93
2022-08-17T21:29:34.010Z,71.58
2022-08-17T21:32:06.701Z,72.70
2022-08-17T21:35:07.451Z,73.40
2022-08-17T21:37:47.561Z,73.44
2022-08-17T21:40:19.301Z,74.03
2022-08-17T21:42:51.657Z,74.45
2022-08-17T21:45:25.521Z,74.18
2022-08-17T21:48:16.022Z,74.04
2022-08-17T21:51:04.832Z,75.12
2022-08-17T21:53:43.350Z,74.51
2022-08-17T21:56:13.825Z,75.00
2022-08-17T21:58:48.418Z,74.26
2022-08-17T22:01:29.414Z,74.04
2022-08-17T22:04:19.007Z,74.13
2022-08-17T22:06:57.169Z,73.90
2022-08-17T22:09:43.067Z,73.77
2022-08-17T22:12:18.269Z,74.39
2022-08-17T22:14:59.334Z,73.39
2022-08-17T22:17:30.886Z,73.08
2022-08-17T22:20:08.081Z,73.55
2022-08-17T22:23:00.291Z,73.47
2022-08-17T22:25:29.405Z,73.95
2022-08-17T22:28:01.153Z,74.12
2022-08-17T22:30:34.194Z,74.96
2022-08-17T22:33:23.651Z,75.44
2022-08-17T22:36:10.244Z,75.23
2022-08-17T22:38:38.861Z,76.00
2022-08-17T22:41:20.023Z,76.87
2022-08-17T22:43:47.965Z,76.69
2022-08-17T22:46:16.405Z,76.07
2022-08-17T22:48:51.355Z,76.59
2022-08-17T22:51:23.699Z,77.82
2022-08-17T22:54:17.152Z,76.71
2022-08-17T22:57:10.552Z,77.57
2022-08-17T22:59:50.382Z,77.38
2022-08-17T23:02:20.791Z,77.49
2022-08-17T23:04:55.646Z,77.40
2022-08-17T23:07:23.391Z,77.82
2022-08-17T23:09:53.534Z,78.04
2022-08-17T23:12:27.381Z,77.81
2022-08-17T23:15:02.924Z,79.16
2022-08-17T23:17:37.438Z,78.55
2022-08-17T23:20:09.393Z,78.36
2022-08-17T23:22:52.239Z,78.58
2022-08-17T23:25:28.950Z,79.44
2022-08-17T23:27:59.472Z,79.27
2022-08-17T23:30:29.605Z,78.64
2022-08-17T23:33:01.177Z,78.48
2022-08-17T23:35:38.983Z,78.25
2022-08-17T23:38:12.993Z,78.35
2022-08-17T23:40:41.704Z,78.70
2022-08-17T23:43:23.607Z,78.54
2022-08-17T23:45:55.071Z,78.58
2022-08-17T23:48:28.490Z,78.75
2022-08-17T23:51:15.759Z,78.20
2022-08-17T23:53:52.160Z,78.42
2022-08-17T23:56:25.683Z,77.87
2022-08-17T23:58:55.902Z,77.68
